Portada
METAR-TAF:

METAR-TAF

Aeroports :

Coonabarabran, Austràlia

latitud: 31-20S, longitud: 149-16E, altitud: 645 m

Observació

L'informe es va fer fa 14 minuts, a les 13:00 UTC
Vent 7 kt del Est/Sud-Est
Temperatura 22°C
Humitat 73%
Pressió 1014 hPa
Visibilitat 10 km o més
Núvols disperses a una alçada de 8100 ft
Cel cobert a una alçada de 12000 ft

METAR: YCBB 241300Z AUTO 11007KT 9999 // SCT081 OVC120 22/17 Q1014

Hora: 00:14 (13:14 UTC)


TAF: manca

Observacions i pronòstics meteorològics de més de 4000 aeroports (METAR i TAF).

Les estacions disponibles són els punts grocs i vermells al mapa.

Posi el ratolí al punt desitjat per veure el nom de l'estació.

Feu clic per veure les observacions i els pronòstics meteorològics.

Per canviar el mapa: feu clic els botons verds amb una creu de color negre per apropar; al botó verd amb un guió per allunyar la imatge; o en les fletxes verdes per a mapes adjacents.


METAR-TAF: